sensor_id;sensor_type;location;lat;lon;timestamp;P1;durP1;ratioP1;P2;durP2;ratioP2
24483;SDS011;12643;51.620;7.548;2023-03-01T00:01:25;10.30;;;7.65;;
24483;SDS011;12643;51.620;7.548;2023-03-01T00:03:55;13.63;;;7.65;;
24483;SDS011;12643;51.620;7.548;2023-03-01T00:06:26;11.88;;;7.63;;
24483;SDS011;12643;51.620;7.548;2023-03-01T00:08:56;10.25;;;7.90;;
24483;SDS011;12643;51.620;7.548;2023-03-01T00:11:24;16.02;;;8.38;;
24483;SDS011;12643;51.620;7.548;2023-03-01T00:13:54;11.57;;;7.57;;
24483;SDS011;12643;51.620;7.548;2023-03-01T00:16:25;11.15;;;7.88;;
24483;SDS011;12643;51.620;7.548;2023-03-01T00:18:54;12.50;;;8.45;;
24483;SDS011;12643;51.620;7.548;2023-03-01T00:21:26;9.98;;;7.30;;
24483;SDS011;12643;51.620;7.548;2023-03-01T00:23:55;10.48;;;7.45;;
24483;SDS011;12643;51.620;7.548;2023-03-01T00:26:24;13.82;;;8.15;;
24483;SDS011;12643;51.620;7.548;2023-03-01T00:28:53;10.07;;;7.38;;
24483;SDS011;12643;51.620;7.548;2023-03-01T00:31:22;13.70;;;7.75;;
24483;SDS011;12643;51.620;7.548;2023-03-01T00:33:52;12.90;;;7.43;;
24483;SDS011;12643;51.620;7.548;2023-03-01T00:36:22;12.85;;;8.32;;
24483;SDS011;12643;51.620;7.548;2023-03-01T00:38:53;12.70;;;7.30;;
24483;SDS011;12643;51.620;7.548;2023-03-01T00:41:22;13.68;;;8.02;;
24483;SDS011;12643;51.620;7.548;2023-03-01T00:43:52;13.57;;;8.48;;
24483;SDS011;12643;51.620;7.548;2023-03-01T00:46:21;12.43;;;8.80;;
24483;SDS011;12643;51.620;7.548;2023-03-01T00:48:51;13.30;;;8.17;;
24483;SDS011;12643;51.620;7.548;2023-03-01T00:51:20;16.05;;;9.00;;
24483;SDS011;12643;51.620;7.548;2023-03-01T00:53:50;13.10;;;8.25;;
24483;SDS011;12643;51.620;7.548;2023-03-01T00:56:21;12.50;;;8.63;;
24483;SDS011;12643;51.620;7.548;2023-03-01T00:58:49;13.90;;;8.50;;
24483;SDS011;12643;51.620;7.548;2023-03-01T01:01:18;14.13;;;8.32;;
24483;SDS011;12643;51.620;7.548;2023-03-01T01:03:48;13.18;;;8.63;;
24483;SDS011;12643;51.620;7.548;2023-03-01T01:06:17;13.07;;;9.15;;
24483;SDS011;12643;51.620;7.548;2023-03-01T01:08:48;8.52;;;6.30;;
24483;SDS011;12643;51.620;7.548;2023-03-01T01:11:19;12.10;;;8.45;;
24483;SDS011;12643;51.620;7.548;2023-03-01T01:16:16;11.13;;;7.43;;
24483;SDS011;12643;51.620;7.548;2023-03-01T01:18:45;14.48;;;8.75;;
24483;SDS011;12643;51.620;7.548;2023-03-01T01:21:15;14.77;;;8.55;;
24483;SDS011;12643;51.620;7.548;2023-03-01T01:23:44;14.23;;;8.73;;
24483;SDS011;12643;51.620;7.548;2023-03-01T01:26:14;16.00;;;8.82;;
24483;SDS011;12643;51.620;7.548;2023-03-01T01:28:44;14.48;;;8.82;;
24483;SDS011;12643;51.620;7.548;2023-03-01T01:31:14;16.92;;;9.10;;
24483;SDS011;12643;51.620;7.548;2023-03-01T01:33:43;14.77;;;8.48;;
24483;SDS011;12643;51.620;7.548;2023-03-01T01:36:12;15.77;;;8.55;;
24483;SDS011;12643;51.620;7.548;2023-03-01T01:38:40;13.18;;;8.18;;
24483;SDS011;12643;51.620;7.548;2023-03-01T01:41:09;13.35;;;8.48;;
24483;SDS011;12643;51.620;7.548;2023-03-01T01:43:39;14.95;;;9.52;;
24483;SDS011;12643;51.620;7.548;2023-03-01T01:46:13;12.98;;;8.60;;
24483;SDS011;12643;51.620;7.548;2023-03-01T01:48:52;13.77;;;8.35;;
24483;SDS011;12643;51.620;7.548;2023-03-01T01:51:27;15.07;;;8.23;;
24483;SDS011;12643;51.620;7.548;2023-03-01T01:54:05;11.40;;;7.78;;
24483;SDS011;12643;51.620;7.548;2023-03-01T01:56:36;15.05;;;8.85;;
24483;SDS011;12643;51.620;7.548;2023-03-01T01:59:08;12.02;;;7.78;;
24483;SDS011;12643;51.620;7.548;2023-03-01T02:01:39;14.75;;;8.80;;
24483;SDS011;12643;51.620;7.548;2023-03-01T02:04:08;13.82;;;8.65;;
24483;SDS011;12643;51.620;7.548;2023-03-01T02:06:37;15.32;;;7.82;;
24483;SDS011;12643;51.620;7.548;2023-03-01T02:09:12;12.77;;;8.77;;
24483;SDS011;12643;51.620;7.548;2023-03-01T02:11:42;12.32;;;8.52;;
24483;SDS011;12643;51.620;7.548;2023-03-01T02:14:11;15.02;;;8.88;;
24483;SDS011;12643;51.620;7.548;2023-03-01T02:16:41;14.80;;;8.23;;
24483;SDS011;12643;51.620;7.548;2023-03-01T02:19:09;12.85;;;8.07;;
24483;SDS011;12643;51.620;7.548;2023-03-01T02:21:45;14.55;;;8.35;;
24483;SDS011;12643;51.620;7.548;2023-03-01T02:24:21;14.10;;;8.32;;
24483;SDS011;12643;51.620;7.548;2023-03-01T02:27:01;12.30;;;8.40;;
24483;SDS011;12643;51.620;7.548;2023-03-01T02:29:31;12.75;;;8.20;;
24483;SDS011;12643;51.620;7.548;2023-03-01T02:32:00;14.05;;;8.93;;
24483;SDS011;12643;51.620;7.548;2023-03-01T02:34:30;14.07;;;8.40;;
24483;SDS011;12643;51.620;7.548;2023-03-01T02:37:00;13.05;;;8.88;;
24483;SDS011;12643;51.620;7.548;2023-03-01T02:39:31;13.55;;;9.70;;
24483;SDS011;12643;51.620;7.548;2023-03-01T02:42:07;15.57;;;9.65;;
24483;SDS011;12643;51.620;7.548;2023-03-01T02:44:38;12.85;;;8.13;;
24483;SDS011;12643;51.620;7.548;2023-03-01T02:47:06;15.15;;;9.80;;
24483;SDS011;12643;51.620;7.548;2023-03-01T02:49:35;15.68;;;9.45;;
24483;SDS011;12643;51.620;7.548;2023-03-01T02:52:07;28.98;;;10.20;;
24483;SDS011;12643;51.620;7.548;2023-03-01T02:55:01;16.23;;;9.35;;
24483;SDS011;12643;51.620;7.548;2023-03-01T02:57:32;16.05;;;9.50;;
24483;SDS011;12643;51.620;7.548;2023-03-01T03:00:07;13.77;;;9.13;;
24483;SDS011;12643;51.620;7.548;2023-03-01T03:05:15;19.25;;;10.13;;
24483;SDS011;12643;51.620;7.548;2023-03-01T03:07:45;14.57;;;8.40;;
24483;SDS011;12643;51.620;7.548;2023-03-01T03:10:16;15.32;;;8.48;;
24483;SDS011;12643;51.620;7.548;2023-03-01T03:12:48;14.65;;;8.93;;
24483;SDS011;12643;51.620;7.548;2023-03-01T03:15:19;16.23;;;8.93;;
24483;SDS011;12643;51.620;7.548;2023-03-01T03:17:48;16.60;;;8.30;;
24483;SDS011;12643;51.620;7.548;2023-03-01T03:20:18;13.98;;;9.43;;
24483;SDS011;12643;51.620;7.548;2023-03-01T03:22:49;11.43;;;8.07;;
24483;SDS011;12643;51.620;7.548;2023-03-01T03:25:18;15.02;;;7.95;;
24483;SDS011;12643;51.620;7.548;2023-03-01T03:27:47;14.40;;;8.80;;
24483;SDS011;12643;51.620;7.548;2023-03-01T03:30:23;14.13;;;8.43;;
24483;SDS011;12643;51.620;7.548;2023-03-01T03:35:21;14.55;;;9.40;;
24483;SDS011;12643;51.620;7.548;2023-03-01T03:37:51;15.63;;;9.10;;
24483;SDS011;12643;51.620;7.548;2023-03-01T03:40:29;17.27;;;9.95;;
24483;SDS011;12643;51.620;7.548;2023-03-01T03:43:00;15.57;;;9.07;;
24483;SDS011;12643;51.620;7.548;2023-03-01T03:45:30;12.15;;;8.50;;
24483;SDS011;12643;51.620;7.548;2023-03-01T03:48:00;15.65;;;9.00;;
24483;SDS011;12643;51.620;7.548;2023-03-01T03:50:29;14.55;;;8.93;;
24483;SDS011;12643;51.620;7.548;2023-03-01T03:52:59;13.68;;;8.75;;
24483;SDS011;12643;51.620;7.548;2023-03-01T03:55:28;13.07;;;8.80;;
24483;SDS011;12643;51.620;7.548;2023-03-01T03:57:57;14.15;;;8.82;;
24483;SDS011;12643;51.620;7.548;2023-03-01T04:02:57;15.45;;;9.20;;
24483;SDS011;12643;51.620;7.548;2023-03-01T04:05:26;15.98;;;9.23;;
24483;SDS011;12643;51.620;7.548;2023-03-01T04:07:54;16.15;;;9.20;;
24483;SDS011;12643;51.620;7.548;2023-03-01T04:10:33;12.75;;;8.43;;
24483;SDS011;12643;51.620;7.548;2023-03-01T04:13:03;14.15;;;8.68;;
24483;SDS011;12643;51.620;7.548;2023-03-01T04:15:34;14.98;;;9.05;;
24483;SDS011;12643;51.620;7.548;2023-03-01T04:18:03;14.75;;;8.88;;
24483;SDS011;12643;51.620;7.548;2023-03-01T04:20:33;12.90;;;8.23;;
24483;SDS011;12643;51.620;7.548;2023-03-01T04:23:03;14.25;;;8.32;;
24483;SDS011;12643;51.620;7.548;2023-03-01T04:25:39;17.30;;;10.00;;
24483;SDS011;12643;51.620;7.548;2023-03-01T04:28:08;17.23;;;9.43;;
24483;SDS011;12643;51.620;7.548;2023-03-01T04:30:38;16.85;;;8.98;;
24483;SDS011;12643;51.620;7.548;2023-03-01T04:33:07;16.90;;;9.65;;
24483;SDS011;12643;51.620;7.548;2023-03-01T04:35:36;15.77;;;9.85;;
24483;SDS011;12643;51.620;7.548;2023-03-01T04:38:05;21.17;;;10.50;;
24483;SDS011;12643;51.620;7.548;2023-03-01T04:40:34;15.45;;;9.50;;
24483;SDS011;12643;51.620;7.548;2023-03-01T04:43:03;17.02;;;9.82;;
24483;SDS011;12643;51.620;7.548;2023-03-01T04:45:32;15.05;;;9.50;;
24483;SDS011;12643;51.620;7.548;2023-03-01T04:48:03;16.92;;;10.00;;
24483;SDS011;12643;51.620;7.548;2023-03-01T04:50:31;21.87;;;10.13;;
24483;SDS011;12643;51.620;7.548;2023-03-01T04:53:00;17.23;;;9.82;;
24483;SDS011;12643;51.620;7.548;2023-03-01T04:55:28;15.20;;;9.57;;
24483;SDS011;12643;51.620;7.548;2023-03-01T04:57:57;18.52;;;10.20;;
24483;SDS011;12643;51.620;7.548;2023-03-01T05:00:25;16.05;;;9.18;;
24483;SDS011;12643;51.620;7.548;2023-03-01T05:02:54;19.05;;;10.23;;
24483;SDS011;12643;51.620;7.548;2023-03-01T05:05:25;16.63;;;9.77;;
24483;SDS011;12643;51.620;7.548;2023-03-01T05:07:55;16.35;;;9.18;;
24483;SDS011;12643;51.620;7.548;2023-03-01T05:10:25;14.27;;;9.50;;
24483;SDS011;12643;51.620;7.548;2023-03-01T05:12:55;16.77;;;9.40;;
24483;SDS011;12643;51.620;7.548;2023-03-01T05:15:24;14.85;;;9.10;;
24483;SDS011;12643;51.620;7.548;2023-03-01T05:17:53;16.88;;;9.02;;
24483;SDS011;12643;51.620;7.548;2023-03-01T05:20:26;17.02;;;9.55;;
24483;SDS011;12643;51.620;7.548;2023-03-01T05:22:55;13.02;;;9.00;;
24483;SDS011;12643;51.620;7.548;2023-03-01T05:25:25;18.77;;;10.35;;
24483;SDS011;12643;51.620;7.548;2023-03-01T05:27:58;15.20;;;9.43;;
24483;SDS011;12643;51.620;7.548;2023-03-01T05:30:30;14.40;;;9.38;;
24483;SDS011;12643;51.620;7.548;2023-03-01T05:32:59;18.65;;;9.20;;
24483;SDS011;12643;51.620;7.548;2023-03-01T05:35:29;17.10;;;9.50;;
24483;SDS011;12643;51.620;7.548;2023-03-01T05:38:00;14.80;;;9.32;;
24483;SDS011;12643;51.620;7.548;2023-03-01T05:40:28;14.40;;;9.48;;
24483;SDS011;12643;51.620;7.548;2023-03-01T05:42:56;18.42;;;11.20;;
24483;SDS011;12643;51.620;7.548;2023-03-01T05:45:25;16.77;;;9.73;;
24483;SDS011;12643;51.620;7.548;2023-03-01T05:47:55;18.67;;;9.60;;
24483;SDS011;12643;51.620;7.548;2023-03-01T05:50:24;19.40;;;11.15;;
24483;SDS011;12643;51.620;7.548;2023-03-01T05:52:58;17.77;;;11.88;;
24483;SDS011;12643;51.620;7.548;2023-03-01T05:55:28;13.45;;;9.40;;
24483;SDS011;12643;51.620;7.548;2023-03-01T05:57:57;20.45;;;10.55;;
24483;SDS011;12643;51.620;7.548;2023-03-01T06:00:27;18.95;;;10.55;;
24483;SDS011;12643;51.620;7.548;2023-03-01T06:02:56;17.80;;;10.32;;
24483;SDS011;12643;51.620;7.548;2023-03-01T06:05:25;15.48;;;10.48;;
24483;SDS011;12643;51.620;7.548;2023-03-01T06:07:54;15.57;;;9.95;;
24483;SDS011;12643;51.620;7.548;2023-03-01T06:10:27;21.30;;;11.40;;
24483;SDS011;12643;51.620;7.548;2023-03-01T06:12:56;16.15;;;9.88;;
24483;SDS011;12643;51.620;7.548;2023-03-01T06:15:25;17.85;;;10.05;;
24483;SDS011;12643;51.620;7.548;2023-03-01T06:17:53;16.98;;;10.15;;
24483;SDS011;12643;51.620;7.548;2023-03-01T06:20:24;19.63;;;10.45;;
24483;SDS011;12643;51.620;7.548;2023-03-01T06:22:54;19.15;;;11.40;;
24483;SDS011;12643;51.620;7.548;2023-03-01T06:25:24;18.25;;;10.13;;
24483;SDS011;12643;51.620;7.548;2023-03-01T06:27:54;19.80;;;11.85;;
24483;SDS011;12643;51.620;7.548;2023-03-01T06:30:23;20.42;;;11.80;;
24483;SDS011;12643;51.620;7.548;2023-03-01T06:32:53;19.25;;;10.73;;
24483;SDS011;12643;51.620;7.548;2023-03-01T06:35:26;19.33;;;10.68;;
24483;SDS011;12643;51.620;7.548;2023-03-01T06:37:57;18.73;;;11.07;;
24483;SDS011;12643;51.620;7.548;2023-03-01T06:40:28;18.83;;;11.10;;
24483;SDS011;12643;51.620;7.548;2023-03-01T06:42:59;19.27;;;11.32;;
24483;SDS011;12643;51.620;7.548;2023-03-01T06:45:29;19.77;;;11.30;;
24483;SDS011;12643;51.620;7.548;2023-03-01T06:48:01;16.97;;;10.70;;
24483;SDS011;12643;51.620;7.548;2023-03-01T06:50:30;20.05;;;11.45;;
24483;SDS011;12643;51.620;7.548;2023-03-01T06:52:59;18.92;;;10.68;;
24483;SDS011;12643;51.620;7.548;2023-03-01T06:55:29;20.83;;;12.38;;
24483;SDS011;12643;51.620;7.548;2023-03-01T06:57:58;29.02;;;13.55;;
24483;SDS011;12643;51.620;7.548;2023-03-01T07:00:28;25.02;;;14.30;;
24483;SDS011;12643;51.620;7.548;2023-03-01T07:02:58;26.23;;;13.80;;
24483;SDS011;12643;51.620;7.548;2023-03-01T07:05:27;26.52;;;14.90;;
24483;SDS011;12643;51.620;7.548;2023-03-01T07:07:56;25.27;;;14.15;;
24483;SDS011;12643;51.620;7.548;2023-03-01T07:10:24;24.48;;;14.40;;
24483;SDS011;12643;51.620;7.548;2023-03-01T07:12:56;21.50;;;13.63;;
24483;SDS011;12643;51.620;7.548;2023-03-01T07:15:24;23.85;;;13.63;;
24483;SDS011;12643;51.620;7.548;2023-03-01T07:17:53;22.63;;;12.68;;
24483;SDS011;12643;51.620;7.548;2023-03-01T07:20:23;23.23;;;13.73;;
24483;SDS011;12643;51.620;7.548;2023-03-01T07:22:51;24.75;;;13.70;;
24483;SDS011;12643;51.620;7.548;2023-03-01T07:25:20;20.77;;;12.05;;
24483;SDS011;12643;51.620;7.548;2023-03-01T07:27:51;25.23;;;14.68;;
24483;SDS011;12643;51.620;7.548;2023-03-01T07:30:20;23.83;;;14.05;;
24483;SDS011;12643;51.620;7.548;2023-03-01T07:32:51;24.67;;;13.48;;
24483;SDS011;12643;51.620;7.548;2023-03-01T07:35:20;23.15;;;13.27;;
24483;SDS011;12643;51.620;7.548;2023-03-01T07:37:49;22.08;;;13.02;;
24483;SDS011;12643;51.620;7.548;2023-03-01T07:40:17;23.40;;;13.52;;
24483;SDS011;12643;51.620;7.548;2023-03-01T07:42:46;21.77;;;13.80;;
24483;SDS011;12643;51.620;7.548;2023-03-01T07:45:15;26.48;;;14.23;;
24483;SDS011;12643;51.620;7.548;2023-03-01T07:47:44;25.02;;;14.05;;
24483;SDS011;12643;51.620;7.548;2023-03-01T07:50:12;27.38;;;14.50;;
24483;SDS011;12643;51.620;7.548;2023-03-01T07:52:40;22.73;;;13.18;;
24483;SDS011;12643;51.620;7.548;2023-03-01T07:55:09;30.23;;;17.13;;
24483;SDS011;12643;51.620;7.548;2023-03-01T07:57:37;36.60;;;18.13;;
24483;SDS011;12643;51.620;7.548;2023-03-01T08:00:06;29.27;;;15.02;;
24483;SDS011;12643;51.620;7.548;2023-03-01T08:02:37;30.98;;;16.02;;
24483;SDS011;12643;51.620;7.548;2023-03-01T08:05:09;25.90;;;14.83;;
24483;SDS011;12643;51.620;7.548;2023-03-01T08:07:37;26.35;;;14.13;;
24483;SDS011;12643;51.620;7.548;2023-03-01T08:10:06;24.77;;;14.20;;
24483;SDS011;12643;51.620;7.548;2023-03-01T08:12:35;28.77;;;14.38;;
24483;SDS011;12643;51.620;7.548;2023-03-01T08:15:05;23.33;;;13.10;;
24483;SDS011;12643;51.620;7.548;2023-03-01T08:17:34;23.25;;;13.52;;
24483;SDS011;12643;51.620;7.548;2023-03-01T08:20:02;29.70;;;13.73;;
24483;SDS011;12643;51.620;7.548;2023-03-01T08:22:34;22.30;;;13.45;;
24483;SDS011;12643;51.620;7.548;2023-03-01T08:25:02;21.92;;;13.02;;
24483;SDS011;12643;51.620;7.548;2023-03-01T08:27:30;23.13;;;12.52;;
24483;SDS011;12643;51.620;7.548;2023-03-01T08:29:59;20.75;;;12.52;;
24483;SDS011;12643;51.620;7.548;2023-03-01T08:32:27;21.27;;;12.43;;
24483;SDS011;12643;51.620;7.548;2023-03-01T08:34:55;21.45;;;12.00;;
24483;SDS011;12643;51.620;7.548;2023-03-01T08:37:24;21.70;;;13.25;;
24483;SDS011;12643;51.620;7.548;2023-03-01T08:39:54;22.48;;;12.20;;
24483;SDS011;12643;51.620;7.548;2023-03-01T08:42:22;19.23;;;12.05;;
24483;SDS011;12643;51.620;7.548;2023-03-01T08:44:51;22.70;;;13.27;;
24483;SDS011;12643;51.620;7.548;2023-03-01T08:47:19;22.48;;;13.70;;
24483;SDS011;12643;51.620;7.548;2023-03-01T08:49:48;21.23;;;13.50;;
24483;SDS011;12643;51.620;7.548;2023-03-01T08:52:17;22.42;;;13.30;;
24483;SDS011;12643;51.620;7.548;2023-03-01T08:54:46;19.55;;;12.38;;
24483;SDS011;12643;51.620;7.548;2023-03-01T08:57:16;23.23;;;12.68;;
24483;SDS011;12643;51.620;7.548;2023-03-01T08:59:46;21.88;;;12.48;;
24483;SDS011;12643;51.620;7.548;2023-03-01T09:02:15;31.45;;;13.73;;
24483;SDS011;12643;51.620;7.548;2023-03-01T09:04:44;25.45;;;12.85;;
24483;SDS011;12643;51.620;7.548;2023-03-01T09:07:12;20.27;;;12.00;;
24483;SDS011;12643;51.620;7.548;2023-03-01T09:09:42;22.23;;;11.80;;
24483;SDS011;12643;51.620;7.548;2023-03-01T09:12:10;22.17;;;10.80;;
24483;SDS011;12643;51.620;7.548;2023-03-01T09:14:42;14.95;;;9.40;;
24483;SDS011;12643;51.620;7.548;2023-03-01T09:17:13;17.75;;;10.88;;
24483;SDS011;12643;51.620;7.548;2023-03-01T09:19:41;18.67;;;11.65;;
24483;SDS011;12643;51.620;7.548;2023-03-01T09:22:12;21.60;;;12.70;;
24483;SDS011;12643;51.620;7.548;2023-03-01T09:24:40;19.48;;;11.60;;
24483;SDS011;12643;51.620;7.548;2023-03-01T09:27:11;18.80;;;10.32;;
24483;SDS011;12643;51.620;7.548;2023-03-01T09:29:40;16.27;;;10.07;;
24483;SDS011;12643;51.620;7.548;2023-03-01T09:32:09;17.85;;;10.43;;
24483;SDS011;12643;51.620;7.548;2023-03-01T09:34:40;18.63;;;10.20;;
24483;SDS011;12643;51.620;7.548;2023-03-01T09:37:23;17.45;;;10.68;;
24483;SDS011;12643;51.620;7.548;2023-03-01T09:39:51;18.67;;;10.88;;
24483;SDS011;12643;51.620;7.548;2023-03-01T09:42:19;14.93;;;10.00;;
24483;SDS011;12643;51.620;7.548;2023-03-01T09:44:50;16.67;;;9.80;;
24483;SDS011;12643;51.620;7.548;2023-03-01T09:47:26;14.90;;;9.75;;
24483;SDS011;12643;51.620;7.548;2023-03-01T09:50:01;14.02;;;9.25;;
24483;SDS011;12643;51.620;7.548;2023-03-01T09:52:35;14.90;;;8.65;;
24483;SDS011;12643;51.620;7.548;2023-03-01T09:55:11;11.80;;;7.80;;
24483;SDS011;12643;51.620;7.548;2023-03-01T09:57:45;12.98;;;8.40;;
24483;SDS011;12643;51.620;7.548;2023-03-01T10:03:11;11.75;;;8.05;;
24483;SDS011;12643;51.620;7.548;2023-03-01T10:05:47;11.68;;;7.07;;
24483;SDS011;12643;51.620;7.548;2023-03-01T10:08:36;13.82;;;7.07;;
24483;SDS011;12643;51.620;7.548;2023-03-01T10:11:17;13.88;;;7.28;;
24483;SDS011;12643;51.620;7.548;2023-03-01T10:13:59;14.43;;;7.65;;
24483;SDS011;12643;51.620;7.548;2023-03-01T10:16:40;12.88;;;6.72;;
24483;SDS011;12643;51.620;7.548;2023-03-01T10:19:21;11.27;;;6.57;;
24483;SDS011;12643;51.620;7.548;2023-03-01T10:22:00;17.42;;;7.93;;
24483;SDS011;12643;51.620;7.548;2023-03-01T10:24:42;10.27;;;6.38;;
24483;SDS011;12643;51.620;7.548;2023-03-01T10:27:13;17.30;;;7.45;;
24483;SDS011;12643;51.620;7.548;2023-03-01T10:29:49;12.93;;;7.18;;
24483;SDS011;12643;51.620;7.548;2023-03-01T10:32:26;10.65;;;6.90;;
24483;SDS011;12643;51.620;7.548;2023-03-01T10:34:56;15.00;;;6.68;;
24483;SDS011;12643;51.620;7.548;2023-03-01T10:37:24;13.63;;;6.70;;
24483;SDS011;12643;51.620;7.548;2023-03-01T10:39:57;16.90;;;6.35;;
24483;SDS011;12643;51.620;7.548;2023-03-01T10:42:32;12.90;;;6.95;;
24483;SDS011;12643;51.620;7.548;2023-03-01T10:45:16;12.77;;;7.05;;
24483;SDS011;12643;51.620;7.548;2023-03-01T10:48:04;10.73;;;6.90;;
24483;SDS011;12643;51.620;7.548;2023-03-01T10:50:37;12.10;;;6.85;;
24483;SDS011;12643;51.620;7.548;2023-03-01T10:53:20;13.57;;;7.10;;
24483;SDS011;12643;51.620;7.548;2023-03-01T10:56:02;14.63;;;7.50;;
24483;SDS011;12643;51.620;7.548;2023-03-01T10:58:33;13.50;;;6.57;;
24483;SDS011;12643;51.620;7.548;2023-03-01T11:01:05;13.07;;;7.18;;
24483;SDS011;12643;51.620;7.548;2023-03-01T11:06:43;15.20;;;9.00;;
24483;SDS011;12643;51.620;7.548;2023-03-01T11:09:24;12.43;;;7.63;;
24483;SDS011;12643;51.620;7.548;2023-03-01T11:11:53;12.82;;;8.23;;
24483;SDS011;12643;51.620;7.548;2023-03-01T11:14:25;14.23;;;7.80;;
24483;SDS011;12643;51.620;7.548;2023-03-01T11:17:01;13.85;;;7.97;;
24483;SDS011;12643;51.620;7.548;2023-03-01T11:19:32;13.82;;;8.07;;
24483;SDS011;12643;51.620;7.548;2023-03-01T11:22:02;10.52;;;7.55;;
24483;SDS011;12643;51.620;7.548;2023-03-01T11:24:34;12.73;;;8.50;;
24483;SDS011;12643;51.620;7.548;2023-03-01T11:27:08;11.63;;;7.40;;
24483;SDS011;12643;51.620;7.548;2023-03-01T11:29:43;16.23;;;8.27;;
24483;SDS011;12643;51.620;7.548;2023-03-01T11:32:16;11.65;;;7.40;;
24483;SDS011;12643;51.620;7.548;2023-03-01T11:34:51;12.60;;;7.90;;
24483;SDS011;12643;51.620;7.548;2023-03-01T11:37:28;11.40;;;7.65;;
24483;SDS011;12643;51.620;7.548;2023-03-01T11:40:05;13.70;;;7.88;;
24483;SDS011;12643;51.620;7.548;2023-03-01T11:42:51;12.82;;;7.63;;
24483;SDS011;12643;51.620;7.548;2023-03-01T11:45:27;11.25;;;7.88;;
24483;SDS011;12643;51.620;7.548;2023-03-01T11:48:09;12.30;;;8.00;;
24483;SDS011;12643;51.620;7.548;2023-03-01T11:50:55;14.30;;;7.93;;
24483;SDS011;12643;51.620;7.548;2023-03-01T11:53:31;12.82;;;8.05;;
24483;SDS011;12643;51.620;7.548;2023-03-01T11:56:18;15.13;;;8.32;;
24483;SDS011;12643;51.620;7.548;2023-03-01T11:58:58;13.57;;;7.85;;
24483;SDS011;12643;51.620;7.548;2023-03-01T12:01:46;16.30;;;8.10;;
24483;SDS011;12643;51.620;7.548;2023-03-01T12:04:36;15.52;;;7.85;;
24483;SDS011;12643;51.620;7.548;2023-03-01T12:07:23;10.80;;;7.13;;
24483;SDS011;12643;51.620;7.548;2023-03-01T12:10:17;16.58;;;8.82;;
24483;SDS011;12643;51.620;7.548;2023-03-01T12:12:58;15.20;;;8.10;;
24483;SDS011;12643;51.620;7.548;2023-03-01T12:21:35;19.20;;;10.20;;
24483;SDS011;12643;51.620;7.548;2023-03-01T12:27:14;12.00;;;7.18;;
24483;SDS011;12643;51.620;7.548;2023-03-01T12:29:51;15.85;;;8.20;;
24483;SDS011;12643;51.620;7.548;2023-03-01T12:32:28;14.38;;;7.50;;
24483;SDS011;12643;51.620;7.548;2023-03-01T12:38:22;10.10;;;6.97;;
24483;SDS011;12643;51.620;7.548;2023-03-01T12:43:58;13.38;;;8.27;;
24483;SDS011;12643;51.620;7.548;2023-03-01T12:46:36;11.43;;;7.60;;
24483;SDS011;12643;51.620;7.548;2023-03-01T12:49:19;15.85;;;8.55;;
24483;SDS011;12643;51.620;7.548;2023-03-01T12:51:53;15.80;;;8.23;;
24483;SDS011;12643;51.620;7.548;2023-03-01T12:54:26;13.43;;;8.02;;
24483;SDS011;12643;51.620;7.548;2023-03-01T12:57:00;12.13;;;8.02;;
24483;SDS011;12643;51.620;7.548;2023-03-01T12:59:37;13.75;;;8.15;;
24483;SDS011;12643;51.620;7.548;2023-03-01T13:02:10;12.95;;;8.35;;
24483;SDS011;12643;51.620;7.548;2023-03-01T13:04:54;13.55;;;8.20;;
24483;SDS011;12643;51.620;7.548;2023-03-01T13:07:34;13.32;;;8.77;;
24483;SDS011;12643;51.620;7.548;2023-03-01T13:10:17;10.70;;;7.35;;
24483;SDS011;12643;51.620;7.548;2023-03-01T13:13:00;11.90;;;6.97;;
24483;SDS011;12643;51.620;7.548;2023-03-01T13:15:39;13.20;;;7.75;;
24483;SDS011;12643;51.620;7.548;2023-03-01T13:18:27;15.48;;;7.90;;
24483;SDS011;12643;51.620;7.548;2023-03-01T13:21:03;13.67;;;8.50;;
24483;SDS011;12643;51.620;7.548;2023-03-01T13:23:35;13.45;;;8.52;;
24483;SDS011;12643;51.620;7.548;2023-03-01T13:26:08;13.43;;;8.23;;
24483;SDS011;12643;51.620;7.548;2023-03-01T13:28:50;11.70;;;7.45;;
24483;SDS011;12643;51.620;7.548;2023-03-01T13:34:40;13.15;;;8.18;;
24483;SDS011;12643;51.620;7.548;2023-03-01T13:40:05;16.02;;;8.77;;
24483;SDS011;12643;51.620;7.548;2023-03-01T13:42:52;14.27;;;8.15;;
24483;SDS011;12643;51.620;7.548;2023-03-01T13:45:24;15.55;;;7.78;;
24483;SDS011;12643;51.620;7.548;2023-03-01T13:48:01;13.90;;;9.18;;
24483;SDS011;12643;51.620;7.548;2023-03-01T13:50:37;14.38;;;8.38;;
24483;SDS011;12643;51.620;7.548;2023-03-01T13:53:16;13.23;;;8.27;;
24483;SDS011;12643;51.620;7.548;2023-03-01T13:58:16;13.57;;;8.77;;
24483;SDS011;12643;51.620;7.548;2023-03-01T14:00:56;14.77;;;8.43;;
24483;SDS011;12643;51.620;7.548;2023-03-01T14:03:25;13.00;;;8.55;;
24483;SDS011;12643;51.620;7.548;2023-03-01T14:06:03;13.13;;;8.20;;
24483;SDS011;12643;51.620;7.548;2023-03-01T14:08:48;13.68;;;8.30;;
24483;SDS011;12643;51.620;7.548;2023-03-01T14:11:24;14.63;;;7.85;;
24483;SDS011;12643;51.620;7.548;2023-03-01T14:14:08;14.25;;;8.40;;
24483;SDS011;12643;51.620;7.548;2023-03-01T14:17:00;14.57;;;8.02;;
24483;SDS011;12643;51.620;7.548;2023-03-01T14:19:43;13.82;;;8.43;;
24483;SDS011;12643;51.620;7.548;2023-03-01T14:22:16;11.98;;;8.40;;
24483;SDS011;12643;51.620;7.548;2023-03-01T14:24:48;16.63;;;9.02;;
24483;SDS011;12643;51.620;7.548;2023-03-01T14:27:18;13.75;;;7.80;;
24483;SDS011;12643;51.620;7.548;2023-03-01T14:29:53;12.50;;;8.32;;
24483;SDS011;12643;51.620;7.548;2023-03-01T14:32:26;15.63;;;8.43;;
24483;SDS011;12643;51.620;7.548;2023-03-01T14:34:56;16.33;;;8.60;;
24483;SDS011;12643;51.620;7.548;2023-03-01T14:37:26;14.80;;;9.55;;
24483;SDS011;12643;51.620;7.548;2023-03-01T14:39:56;11.90;;;7.30;;
24483;SDS011;12643;51.620;7.548;2023-03-01T14:42:25;15.80;;;8.60;;
24483;SDS011;12643;51.620;7.548;2023-03-01T14:44:56;14.05;;;7.70;;
24483;SDS011;12643;51.620;7.548;2023-03-01T14:47:27;16.15;;;8.23;;
24483;SDS011;12643;51.620;7.548;2023-03-01T14:50:01;12.60;;;7.45;;
24483;SDS011;12643;51.620;7.548;2023-03-01T14:52:33;10.52;;;6.63;;
24483;SDS011;12643;51.620;7.548;2023-03-01T14:55:05;10.32;;;6.13;;
24483;SDS011;12643;51.620;7.548;2023-03-01T14:57:43;8.02;;;5.50;;
24483;SDS011;12643;51.620;7.548;2023-03-01T15:00:15;16.00;;;6.55;;
24483;SDS011;12643;51.620;7.548;2023-03-01T15:02:49;11.13;;;6.03;;
24483;SDS011;12643;51.620;7.548;2023-03-01T15:05:22;10.52;;;5.70;;
24483;SDS011;12643;51.620;7.548;2023-03-01T15:07:54;10.90;;;5.72;;
24483;SDS011;12643;51.620;7.548;2023-03-01T15:10:24;13.20;;;7.85;;
24483;SDS011;12643;51.620;7.548;2023-03-01T15:12:56;8.45;;;5.28;;
24483;SDS011;12643;51.620;7.548;2023-03-01T15:15:39;7.22;;;5.13;;
24483;SDS011;12643;51.620;7.548;2023-03-01T15:18:15;12.30;;;6.82;;
24483;SDS011;12643;51.620;7.548;2023-03-01T15:20:45;10.35;;;5.90;;
24483;SDS011;12643;51.620;7.548;2023-03-01T15:23:22;12.65;;;7.85;;
24483;SDS011;12643;51.620;7.548;2023-03-01T15:25:54;11.82;;;8.07;;
24483;SDS011;12643;51.620;7.548;2023-03-01T15:28:23;8.05;;;4.90;;
24483;SDS011;12643;51.620;7.548;2023-03-01T15:30:55;10.75;;;5.90;;
24483;SDS011;12643;51.620;7.548;2023-03-01T15:42:03;9.35;;;4.97;;
24483;SDS011;12643;51.620;7.548;2023-03-01T15:44:34;7.68;;;5.40;;
24483;SDS011;12643;51.620;7.548;2023-03-01T15:47:05;15.65;;;11.10;;
24483;SDS011;12643;51.620;7.548;2023-03-01T15:49:51;9.52;;;6.85;;